East Hope, Idaho
Current Conditions -  °F | °C
As of 12:35 AM on Saturday 29 Nov 2014 (Local Time) from KSZT Reporting Station
Drizzle Drizzle  
Wind Chill: 37°   Ceiling: 3500
Heat Index: 43°   Visibility: 10mi
Dew Point: 37°   Wind: 12mph
Humidity: 81%   Direction: 240°WSW
Pressure: 29.23"   Gusts: 25mph
Location:  48.3258°N, 116.16°W
Report Text: KSZT 290835Z AUTO 24010G22KT 10SM -DZ SCT028 OVC035 06/03 A2923 RMK AO2
Loading
Personal Weather Stations






























Interactive Weather Map New forecast layout! Learn more

10-Day Weather Forecast

Advertisements
Track Severe Weather on mobile